Meteo Giornale » Osservazioni meteo Stati Uniti (USA) » Lakeview
ore: 01:53 - Osservazioni Meteo Lakeview
Lat. 42° 10' N Lon. 120° 24' W Alt. 1441 metri s.l.m.
12 °C
Sereno
Temp. 24 Ore
1 °C
29 °C
Sud
16.7 Km/h
Dew point 1 °C
Umidità 46 %
Visibilità 13 Km
Il sole sorge alle ore 06:27
Il sole tramonta alle ore 19:35
| Data e Ora | Cielo e Fenomeni | T °C | DP °C | Um. % | Pres. hPa | Vis. km | Vento km/h | |
|---|---|---|---|---|---|---|---|---|
| Oggi h: 01:53 | Sereno | 12 | 1 | 46 | 1014 | 13 | S 16.7 | |
| Oggi h: 00:53 | Sereno | 12 | 1 | 46 | 1015 | 13 | S 13 | |
| Ieri h: 23:53 | Sereno | 11 | -1 | 43 | 1015 | 13 | S 7.4 | |
| Ieri h: 22:53 | Sereno | 12 | -1 | 40 | 1015 | 11 | S/SE 7.4 | |
| Ieri h: 21:53 | Sereno | 16 | -2 | 29 | 1015 | 11 | S 11.1 | |
| Ieri h: 20:53 | Sereno | 17 | -1 | 29 | 1015 | 13 | S/SO 14.8 | |
| Ieri h: 19:53 | Sereno | 17 | -2 | 27 | 1014 | 13 | S 11.1 | |
| Ieri h: 18:53 | Sereno | 24 | -2 | 17 | 1012 | 10 | O 20.3 | |
| Ieri h: 17:53 | Sereno | 28 | -2 | 13 | 1012 | 10 | O 27.8 | |
| Ieri h: 16:53 | Sereno | 29 | -2 | 13 | 1012 | 10 | S/SO 24 | |
| Ieri h: 15:53 | Sereno | 29 | -2 | 13 | 1013 | 10 | SO 22.2 | |
| Ieri h: 14:53 | Sereno | 29 | -2 | 13 | 1014 | 10 | S 24 | |
| Ieri h: 13:53 | Poco Nuvoloso | 28 | -2 | 13 | 1015 | 10 | S 16.7 | |
| Ieri h: 12:53 | Sereno | 27 | -2 | 14 | 1016 | 10 | S 24 | |
| Ieri h: 11:53 | Sereno | 25 | -2 | 16 | 1017 | 10 | S 22.2 | |
| Ieri h: 10:53 | Sereno | 23 | -2 | 18 | 1017 | 10 | N 7.4 | |
| Ieri h: 09:53 | Sereno | 19 | -3 | 22 | 1017 | 10 | N 5.5 | |
| Ieri h: 08:53 | Sereno | 16 | -2 | 29 | 1017 | 10 | N 0 | |
| Ieri h: 07:53 | Sereno | 9 | -3 | 42 | 1017 | 10 | N 5.5 | |
| Ieri h: 06:53 | Sereno | 1 | -6 | 59 | 1017 | 10 | N 9.3 | |
| Ieri h: 05:53 | Sereno | 3 | -4 | 59 | 1017 | 10 | N 0 | |
| Ieri h: 04:53 | Sereno | 2 | -4 | 64 | 1017 | 10 | N 0 | |
| Ieri h: 03:53 | Sereno | 6 | -4 | 48 | 1017 | 10 | N 0 | |
| Ieri h: 02:53 | Sereno | 6 | -4 | 48 | 1017 | 10 | N/NO 13 | |



